createdAt,value
2018-07-28T00:00:00.391Z,26.70
2018-07-28T00:04:57.694Z,26.60
2018-07-28T00:07:26.550Z,26.50
2018-07-28T00:09:55.505Z,26.50
2018-07-28T00:12:24.347Z,26.50
2018-07-28T00:14:53.218Z,26.50
2018-07-28T00:17:22.054Z,26.50
2018-07-28T00:19:50.906Z,26.50
2018-07-28T00:24:48.223Z,26.40
2018-07-28T00:27:17.080Z,26.40
2018-07-28T00:29:45.955Z,26.30
2018-07-28T00:32:14.816Z,26.30
2018-07-28T00:34:43.704Z,26.20
2018-07-28T00:37:12.572Z,26.20
2018-07-28T00:39:41.427Z,26.10
2018-07-28T00:42:10.314Z,26.10
2018-07-28T00:44:39.194Z,26.10
2018-07-28T00:47:08.048Z,26.10
2018-07-28T00:49:36.910Z,26.00
2018-07-28T00:52:05.759Z,26.00
2018-07-28T00:54:34.627Z,26.00
2018-07-28T00:57:03.464Z,26.00
2018-07-28T00:59:32.366Z,25.90
2018-07-28T01:02:01.219Z,25.90
2018-07-28T01:04:30.110Z,25.90
2018-07-28T01:06:59.028Z,25.80
2018-07-28T01:09:27.906Z,25.80
2018-07-28T01:11:56.738Z,25.80
2018-07-28T01:16:54.035Z,25.80
2018-07-28T01:19:22.891Z,25.80
2018-07-28T01:21:51.789Z,25.80
2018-07-28T01:24:20.669Z,25.80
2018-07-28T01:26:49.524Z,25.80
2018-07-28T01:29:19.214Z,25.80
2018-07-28T01:31:49.104Z,25.80
2018-07-28T01:34:18.271Z,25.80
2018-07-28T01:36:47.088Z,25.70
2018-07-28T01:39:16.205Z,25.70
2018-07-28T01:41:45.144Z,25.70
2018-07-28T01:44:14.010Z,25.70
2018-07-28T01:46:42.838Z,25.60
2018-07-28T01:49:11.729Z,25.50
2018-07-28T01:51:40.587Z,25.50
2018-07-28T01:54:09.438Z,25.50
2018-07-28T01:56:38.274Z,25.40
2018-07-28T01:59:07.187Z,25.40
2018-07-28T02:04:04.456Z,25.30
2018-07-28T02:06:33.270Z,25.20
2018-07-28T02:09:02.179Z,25.20
2018-07-28T02:11:31.074Z,25.10
2018-07-28T02:13:59.964Z,25.10
2018-07-28T02:16:28.791Z,25.00
2018-07-28T02:18:57.667Z,25.00
2018-07-28T02:21:26.524Z,25.00
2018-07-28T02:23:55.390Z,25.00
2018-07-28T02:26:24.240Z,25.00
2018-07-28T02:28:53.219Z,24.90
2018-07-28T02:31:22.026Z,24.90
2018-07-28T02:33:50.887Z,24.90
2018-07-28T02:36:19.911Z,24.90
2018-07-28T02:38:48.770Z,24.90
2018-07-28T02:41:17.642Z,24.90
2018-07-28T02:43:46.517Z,24.90
2018-07-28T02:46:15.367Z,24.90
2018-07-28T02:48:44.271Z,24.90
2018-07-28T02:51:13.129Z,24.80
2018-07-28T02:53:44.326Z,24.80
2018-07-28T02:56:14.178Z,24.80
2018-07-28T02:58:43.283Z,24.80
2018-07-28T03:01:12.405Z,24.80
2018-07-28T03:03:41.466Z,24.80
2018-07-28T03:06:10.703Z,24.80
2018-07-28T03:08:39.587Z,24.80
2018-07-28T03:11:08.504Z,24.80
2018-07-28T03:13:37.360Z,24.70
2018-07-28T03:16:12.759Z,24.70
2018-07-28T03:18:41.626Z,24.70
2018-07-28T03:23:38.954Z,24.70
2018-07-28T03:26:07.899Z,24.80
2018-07-28T03:28:36.726Z,24.70
2018-07-28T03:31:05.628Z,24.70
2018-07-28T03:33:34.458Z,24.60
2018-07-28T03:36:03.318Z,24.60
2018-07-28T03:38:32.144Z,24.50
2018-07-28T03:41:01.026Z,24.50
2018-07-28T03:43:29.899Z,24.40
2018-07-28T03:45:58.801Z,24.40
2018-07-28T03:48:27.678Z,24.40
2018-07-28T03:50:56.655Z,24.30
2018-07-28T03:53:25.504Z,24.20
2018-07-28T03:55:54.364Z,24.20
2018-07-28T03:58:23.210Z,24.20
2018-07-28T04:00:52.068Z,24.20
2018-07-28T04:03:20.923Z,24.20
2018-07-28T04:05:49.790Z,24.20
2018-07-28T04:08:18.659Z,24.20
2018-07-28T04:13:15.964Z,24.20
2018-07-28T04:15:44.830Z,24.30
2018-07-28T04:18:13.655Z,24.30
2018-07-28T04:21:13.033Z,24.30
2018-07-28T04:23:41.891Z,24.20
2018-07-28T04:26:10.814Z,24.30
2018-07-28T04:28:39.682Z,24.30
2018-07-28T04:31:08.550Z,24.30
2018-07-28T04:33:37.378Z,24.20
2018-07-28T04:36:06.235Z,24.30
2018-07-28T04:38:35.091Z,24.30
2018-07-28T04:41:03.958Z,24.30
2018-07-28T04:43:32.846Z,24.30
2018-07-28T04:46:01.735Z,24.30
2018-07-28T04:48:30.545Z,24.30
2018-07-28T04:50:59.426Z,24.30
2018-07-28T04:53:28.252Z,24.30
2018-07-28T04:55:57.127Z,24.40
2018-07-28T04:58:25.955Z,24.30
2018-07-28T05:00:54.830Z,24.40
2018-07-28T05:03:23.694Z,24.30
2018-07-28T05:05:52.563Z,24.30
2018-07-28T05:08:21.427Z,24.20
2018-07-28T05:10:50.347Z,24.20
2018-07-28T05:15:47.677Z,24.20
2018-07-28T05:18:16.512Z,24.20
2018-07-28T05:20:45.391Z,24.20
2018-07-28T05:25:42.763Z,24.30
2018-07-28T05:28:11.599Z,24.30
2018-07-28T05:30:40.470Z,24.30
2018-07-28T05:33:09.304Z,24.30
2018-07-28T05:35:38.184Z,24.30
2018-07-28T05:38:07.028Z,24.30
2018-07-28T05:40:35.916Z,24.30
2018-07-28T05:43:04.794Z,24.40
2018-07-28T05:45:33.671Z,24.40
2018-07-28T05:48:02.524Z,24.50
2018-07-28T05:50:31.437Z,24.50
2018-07-28T05:53:00.272Z,24.60
2018-07-28T05:55:29.146Z,24.60
2018-07-28T05:57:57.983Z,24.70
2018-07-28T06:00:26.886Z,24.70
2018-07-28T06:02:55.776Z,24.70
2018-07-28T06:05:24.634Z,24.80
2018-07-28T06:07:53.530Z,24.80
2018-07-28T06:10:22.407Z,24.80
2018-07-28T06:12:51.234Z,24.80
2018-07-28T06:15:20.107Z,24.80
2018-07-28T06:17:48.937Z,24.90
2018-07-28T06:20:17.861Z,24.90
2018-07-28T06:22:46.666Z,24.90
2018-07-28T06:25:15.568Z,24.90
2018-07-28T06:27:44.385Z,25.00
2018-07-28T06:30:13.303Z,25.00
2018-07-28T06:32:42.132Z,25.10
2018-07-28T06:35:11.014Z,25.10
2018-07-28T06:37:39.859Z,25.10
2018-07-28T06:40:08.740Z,25.10
2018-07-28T06:42:37.611Z,25.20
2018-07-28T06:45:07.064Z,25.20
2018-07-28T06:47:35.893Z,25.30
2018-07-28T06:50:05.370Z,25.30
2018-07-28T06:52:34.214Z,25.30
2018-07-28T06:55:03.426Z,25.30
2018-07-28T06:57:32.381Z,25.40
2018-07-28T07:00:01.243Z,25.40
2018-07-28T07:02:30.095Z,25.40
2018-07-28T07:04:58.967Z,25.40
2018-07-28T07:07:27.864Z,25.50
2018-07-28T07:09:56.743Z,25.50
2018-07-28T07:12:25.721Z,25.50
2018-07-28T07:14:54.555Z,25.50
2018-07-28T07:17:23.438Z,25.60
2018-07-28T07:19:52.367Z,25.60
2018-07-28T07:22:21.246Z,25.60
2018-07-28T07:24:50.162Z,25.60
2018-07-28T07:27:19.007Z,25.70
2018-07-28T07:29:47.954Z,25.70
2018-07-28T07:32:16.843Z,25.70
2018-07-28T07:34:45.671Z,25.80
2018-07-28T07:37:15.851Z,25.80
2018-07-28T07:39:45.975Z,25.80
2018-07-28T07:42:14.851Z,25.80
2018-07-28T07:44:43.766Z,25.80
2018-07-28T07:47:12.708Z,25.80
2018-07-28T07:49:41.861Z,25.80
2018-07-28T07:52:11.175Z,25.90
2018-07-28T07:54:40.005Z,25.90
2018-07-28T07:57:09.771Z,25.90
2018-07-28T07:59:39.678Z,25.90
2018-07-28T08:02:08.559Z,25.90
2018-07-28T08:04:37.389Z,26.00
2018-07-28T08:07:06.276Z,26.00
2018-07-28T08:09:35.119Z,26.00
2018-07-28T08:12:03.980Z,26.00
2018-07-28T08:14:32.839Z,26.10
2018-07-28T08:17:01.726Z,26.10
2018-07-28T08:19:30.575Z,26.20
2018-07-28T08:21:59.455Z,26.20
2018-07-28T08:24:28.288Z,26.20
2018-07-28T08:26:57.170Z,28.90
2018-07-28T08:29:26.000Z,26.30
2018-07-28T08:31:54.899Z,26.30
2018-07-28T08:34:23.738Z,26.40
2018-07-28T08:36:52.627Z,26.40
2018-07-28T08:39:21.480Z,26.40
2018-07-28T08:41:50.366Z,26.40
2018-07-28T08:44:19.278Z,26.40
2018-07-28T08:46:48.152Z,26.50
2018-07-28T08:49:17.003Z,26.50
2018-07-28T08:51:45.886Z,26.50
2018-07-28T08:54:14.760Z,26.60
2018-07-28T08:56:43.667Z,26.60
2018-07-28T08:59:13.002Z,26.60
2018-07-28T09:01:41.900Z,26.60
2018-07-28T09:04:10.779Z,26.70
2018-07-28T09:06:39.688Z,26.80
2018-07-28T09:09:09.966Z,26.80
2018-07-28T09:11:38.856Z,26.80
2018-07-28T09:14:08.316Z,26.90
2018-07-28T09:16:37.191Z,27.00
2018-07-28T09:19:06.111Z,27.10
2018-07-28T09:21:35.110Z,27.10
2018-07-28T09:24:03.955Z,27.10
2018-07-28T09:26:32.827Z,27.20
2018-07-28T09:29:01.791Z,27.20
2018-07-28T09:31:30.766Z,27.20
2018-07-28T09:33:59.695Z,27.20
2018-07-28T09:36:28.579Z,27.20
2018-07-28T09:38:57.452Z,27.10
2018-07-28T09:41:26.361Z,27.20
2018-07-28T09:43:55.244Z,27.20
2018-07-28T09:46:24.157Z,27.20
2018-07-28T09:48:53.232Z,27.30
2018-07-28T09:51:22.100Z,27.40
2018-07-28T09:53:50.981Z,27.50
2018-07-28T09:56:19.988Z,27.60
2018-07-28T09:58:49.071Z,27.60
2018-07-28T10:01:18.439Z,27.70
2018-07-28T10:03:47.951Z,27.70
2018-07-28T10:06:16.784Z,27.90
2018-07-28T10:08:45.642Z,28.00
2018-07-28T10:11:14.570Z,28.00
2018-07-28T10:13:43.436Z,28.10
2018-07-28T10:16:12.333Z,28.20
2018-07-28T10:18:41.286Z,28.20
2018-07-28T10:21:10.136Z,28.30
2018-07-28T10:26:07.584Z,28.40
2018-07-28T10:28:36.476Z,28.50
2018-07-28T10:31:05.358Z,28.60
2018-07-28T10:33:34.253Z,28.60
2018-07-28T10:36:03.116Z,28.70
2018-07-28T10:38:32.002Z,28.80
2018-07-28T10:41:00.867Z,28.90
2018-07-28T10:43:29.778Z,29.00
2018-07-28T10:45:58.731Z,29.10
2018-07-28T10:48:27.632Z,29.10
2018-07-28T10:50:56.484Z,29.20
2018-07-28T10:53:26.384Z,29.20
2018-07-28T10:55:55.219Z,29.20
2018-07-28T10:58:24.106Z,29.20
2018-07-28T11:00:52.935Z,29.20
2018-07-28T11:03:21.835Z,29.20
2018-07-28T11:05:50.671Z,29.30
2018-07-28T11:08:19.557Z,29.30
2018-07-28T11:10:48.400Z,29.30
2018-07-28T11:13:17.288Z,29.40
2018-07-28T11:15:46.119Z,29.50
2018-07-28T11:18:14.963Z,29.60
2018-07-28T11:20:43.798Z,29.60
2018-07-28T11:23:18.813Z,29.70
2018-07-28T11:25:47.817Z,29.70
2018-07-28T11:28:16.728Z,29.80
2018-07-28T11:30:45.568Z,29.90
2018-07-28T11:33:25.280Z,29.90
2018-07-28T11:36:05.007Z,30.00
2018-07-28T11:38:44.907Z,30.10
2018-07-28T11:41:24.814Z,30.20
2018-07-28T11:44:04.831Z,30.20
2018-07-28T11:46:33.705Z,30.20
2018-07-28T11:49:02.575Z,30.30
2018-07-28T11:51:31.414Z,30.20
2018-07-28T11:54:00.298Z,30.30
2018-07-28T11:56:29.133Z,30.30
2018-07-28T11:58:58.117Z,30.30
2018-07-28T12:03:55.492Z,30.30
2018-07-28T12:06:25.455Z,30.20
2018-07-28T12:08:54.359Z,30.20
2018-07-28T12:11:23.187Z,30.20
2018-07-28T12:13:52.329Z,30.20
2018-07-28T12:16:21.175Z,30.20
2018-07-28T12:18:50.061Z,30.30
2018-07-28T12:21:18.914Z,30.30
2018-07-28T12:23:47.825Z,30.40
2018-07-28T12:26:16.651Z,30.50
2018-07-28T12:28:45.562Z,30.60
2018-07-28T12:31:14.461Z,30.70
2018-07-28T12:33:43.357Z,30.80
2018-07-28T12:36:12.220Z,30.80
2018-07-28T12:38:41.142Z,30.80
2018-07-28T12:41:10.167Z,30.80
2018-07-28T12:43:39.059Z,30.80
2018-07-28T12:46:07.894Z,30.80
2018-07-28T12:48:36.881Z,30.70
2018-07-28T12:51:05.763Z,30.70
2018-07-28T12:53:34.646Z,30.60
2018-07-28T12:56:04.353Z,30.50
2018-07-28T12:58:33.979Z,30.50
2018-07-28T13:01:02.817Z,30.30
2018-07-28T13:03:31.698Z,30.30
2018-07-28T13:06:00.543Z,30.20
2018-07-28T13:08:29.415Z,30.20
2018-07-28T13:10:58.250Z,30.10
2018-07-28T13:13:27.639Z,30.10
2018-07-28T13:15:56.498Z,30.10
2018-07-28T13:18:25.380Z,30.20
2018-07-28T13:20:54.243Z,30.20
2018-07-28T13:23:23.122Z,30.30
2018-07-28T13:25:51.965Z,30.40
2018-07-28T13:28:20.822Z,30.50
2018-07-28T13:30:49.708Z,30.70
2018-07-28T13:33:18.682Z,30.80
2018-07-28T13:35:47.558Z,31.00
2018-07-28T13:38:16.444Z,31.10
2018-07-28T13:40:45.320Z,31.20
2018-07-28T13:43:14.211Z,31.40
2018-07-28T13:45:43.126Z,31.50
2018-07-28T13:48:11.976Z,31.60
2018-07-28T13:50:40.855Z,31.70
2018-07-28T13:53:09.740Z,31.80
2018-07-28T13:55:38.633Z,32.00
2018-07-28T13:58:07.611Z,32.10
2018-07-28T14:00:36.524Z,32.30
2018-07-28T14:03:05.446Z,32.40
2018-07-28T14:05:34.363Z,32.50
2018-07-28T14:08:03.457Z,32.60
2018-07-28T14:10:32.512Z,32.70
2018-07-28T14:13:01.366Z,32.90
2018-07-28T14:15:30.278Z,32.90
2018-07-28T14:17:59.169Z,33.00
2018-07-28T14:20:28.119Z,33.10
2018-07-28T14:22:56.974Z,33.30
2018-07-28T14:25:25.847Z,33.40
2018-07-28T14:27:54.715Z,33.60
2018-07-28T14:30:23.615Z,33.70
2018-07-28T14:32:52.455Z,33.80
2018-07-28T14:35:21.327Z,33.90
2018-07-28T14:37:50.339Z,33.90
2018-07-28T14:40:19.214Z,34.00
2018-07-28T14:42:48.096Z,34.00
2018-07-28T14:45:17.031Z,33.90
2018-07-28T14:47:45.884Z,33.90
2018-07-28T14:50:14.964Z,33.80
2018-07-28T14:52:43.819Z,33.70
2018-07-28T14:55:12.716Z,33.60
2018-07-28T14:57:41.776Z,33.50
2018-07-28T15:00:10.730Z,33.40
2018-07-28T15:02:39.592Z,33.30
2018-07-28T15:05:08.508Z,33.20
2018-07-28T15:07:37.367Z,33.10
2018-07-28T15:10:06.287Z,33.00
2018-07-28T15:12:35.140Z,32.80
2018-07-28T15:15:04.235Z,32.70
2018-07-28T15:17:33.114Z,32.60
2018-07-28T15:20:03.005Z,32.50
2018-07-28T15:22:31.856Z,32.40
2018-07-28T15:25:00.745Z,32.30
2018-07-28T15:27:29.591Z,32.20
2018-07-28T15:29:58.486Z,32.10
2018-07-28T15:32:27.355Z,32.10
2018-07-28T15:34:56.253Z,32.00
2018-07-28T15:37:25.118Z,31.90
2018-07-28T15:39:54.062Z,31.80
2018-07-28T15:42:23.011Z,31.80
2018-07-28T15:44:51.926Z,31.70
2018-07-28T15:47:20.764Z,31.60
2018-07-28T15:49:49.631Z,31.50
2018-07-28T15:52:18.467Z,31.50
2018-07-28T15:54:47.354Z,31.40
2018-07-28T15:57:16.216Z,31.40
2018-07-28T15:59:45.746Z,31.40
2018-07-28T16:02:14.842Z,31.30
2018-07-28T16:04:43.964Z,31.30
2018-07-28T16:07:12.878Z,31.20
2018-07-28T16:09:41.759Z,31.20
2018-07-28T16:12:10.636Z,31.10
2018-07-28T16:14:39.503Z,31.10
2018-07-28T16:17:08.391Z,31.00
2018-07-28T16:19:37.264Z,31.00
2018-07-28T16:22:06.158Z,31.00
2018-07-28T16:24:35.051Z,30.90
2018-07-28T16:27:03.942Z,30.90
2018-07-28T16:29:32.820Z,30.90
2018-07-28T16:32:01.727Z,30.80
2018-07-28T16:34:31.471Z,30.80
2018-07-28T16:37:00.639Z,30.80
2018-07-28T16:39:29.510Z,30.80
2018-07-28T16:41:58.455Z,30.80
2018-07-28T16:44:27.426Z,30.70
2018-07-28T16:46:56.306Z,30.70
2018-07-28T16:49:25.168Z,30.70
2018-07-28T16:51:54.048Z,30.60
2018-07-28T16:56:51.363Z,30.60
2018-07-28T16:59:20.288Z,30.60
2018-07-28T17:01:49.217Z,30.60
2018-07-28T17:04:18.058Z,30.60
2018-07-28T17:06:46.933Z,30.50
2018-07-28T17:09:15.787Z,30.60
2018-07-28T17:11:44.737Z,30.50
2018-07-28T17:14:13.595Z,30.60
2018-07-28T17:16:42.509Z,30.50
2018-07-28T17:19:12.414Z,30.60
2018-07-28T17:21:41.320Z,30.60
2018-07-28T17:24:10.181Z,30.50
2018-07-28T17:26:39.062Z,30.50
2018-07-28T17:29:07.917Z,30.50
2018-07-28T17:31:36.831Z,30.50
2018-07-28T17:34:05.731Z,30.40
2018-07-28T17:36:34.646Z,30.40
2018-07-28T17:39:04.327Z,30.40
2018-07-28T17:41:33.231Z,30.40
2018-07-28T17:44:02.080Z,30.40
2018-07-28T17:46:30.994Z,30.40
2018-07-28T17:48:59.818Z,30.20
2018-07-28T17:51:28.695Z,30.30
2018-07-28T17:53:57.586Z,30.30
2018-07-28T17:56:26.482Z,30.30
2018-07-28T17:58:55.344Z,30.30
2018-07-28T18:01:24.399Z,30.30
2018-07-28T18:03:53.282Z,30.30
2018-07-28T18:06:22.147Z,30.20
2018-07-28T18:11:19.488Z,30.10
2018-07-28T18:13:48.397Z,30.10
2018-07-28T18:16:17.238Z,30.10
2018-07-28T18:18:46.213Z,30.10
2018-07-28T18:21:15.088Z,30.00
2018-07-28T18:23:43.983Z,30.00
2018-07-28T18:26:12.826Z,30.00
2018-07-28T18:28:41.719Z,30.00
2018-07-28T18:31:10.587Z,29.90
2018-07-28T18:33:39.478Z,29.90
2018-07-28T18:36:08.337Z,29.90
2018-07-28T18:38:37.224Z,29.80
2018-07-28T18:41:06.079Z,29.80
2018-07-28T18:43:34.964Z,29.70
2018-07-28T18:46:04.050Z,29.70
2018-07-28T18:48:32.953Z,29.70
2018-07-28T18:51:01.831Z,29.70
2018-07-28T18:53:30.725Z,29.60
2018-07-28T18:58:28.099Z,29.60
2018-07-28T19:00:56.955Z,29.50
2018-07-28T19:05:54.311Z,29.50
2018-07-28T19:08:23.209Z,29.50
2018-07-28T19:10:53.682Z,29.50
2018-07-28T19:13:27.716Z,29.50
2018-07-28T19:15:56.831Z,29.40
2018-07-28T19:19:33.347Z,29.40
2018-07-28T19:22:02.206Z,29.40
2018-07-28T19:24:31.107Z,29.40
2018-07-28T19:26:59.978Z,29.30
2018-07-28T19:29:34.060Z,29.30
2018-07-28T19:32:02.898Z,29.30
2018-07-28T19:34:31.786Z,29.30
2018-07-28T19:37:05.827Z,29.30
2018-07-28T19:39:34.706Z,29.20
2018-07-28T19:42:08.863Z,29.20
2018-07-28T19:44:37.774Z,29.20
2018-07-28T19:47:06.788Z,29.20
2018-07-28T19:49:35.702Z,29.20
2018-07-28T19:52:04.539Z,29.10
2018-07-28T19:54:33.445Z,29.10
2018-07-28T19:57:02.291Z,29.10
2018-07-28T19:59:31.184Z,29.10
2018-07-28T20:02:00.105Z,29.10
2018-07-28T20:04:28.987Z,29.10
2018-07-28T20:06:57.933Z,29.00
2018-07-28T20:09:26.746Z,29.00
2018-07-28T20:11:55.580Z,29.00
2018-07-28T20:16:53.843Z,29.00
2018-07-28T20:19:22.865Z,29.00
2018-07-28T20:21:51.778Z,29.00
2018-07-28T20:26:49.127Z,28.90
2018-07-28T20:29:18.015Z,28.90
2018-07-28T20:31:46.852Z,28.80
2018-07-28T20:34:15.735Z,28.90
2018-07-28T20:36:44.587Z,28.80
2018-07-28T20:39:13.863Z,28.80
2018-07-28T20:41:42.757Z,28.80
2018-07-28T20:44:11.606Z,28.80
2018-07-28T20:46:40.484Z,28.80
2018-07-28T20:49:09.462Z,28.80
2018-07-28T20:51:38.317Z,28.70
2018-07-28T20:54:07.393Z,28.70
2018-07-28T20:56:36.295Z,28.70
2018-07-28T20:59:05.144Z,28.70
2018-07-28T21:01:34.018Z,28.70
2018-07-28T21:04:02.846Z,28.70
2018-07-28T21:06:31.741Z,28.60
2018-07-28T21:09:00.605Z,28.60
2018-07-28T21:11:29.611Z,28.60
2018-07-28T21:13:58.447Z,28.60
2018-07-28T21:16:27.333Z,28.50
2018-07-28T21:18:56.186Z,28.50
2018-07-28T21:21:25.082Z,28.50
2018-07-28T21:23:53.908Z,28.50
2018-07-28T21:26:22.786Z,28.40
2018-07-28T21:28:51.668Z,28.40
2018-07-28T21:31:20.531Z,28.40
2018-07-28T21:33:49.431Z,28.40
2018-07-28T21:36:18.315Z,28.40
2018-07-28T21:38:47.145Z,28.40
2018-07-28T21:41:16.036Z,28.40
2018-07-28T21:43:44.867Z,28.30
2018-07-28T21:46:13.799Z,28.30
2018-07-28T21:48:42.719Z,28.30
2018-07-28T21:53:40.049Z,28.30
2018-07-28T21:56:08.934Z,28.30
2018-07-28T21:58:37.776Z,28.20
2018-07-28T22:01:13.654Z,28.20
2018-07-28T22:03:42.719Z,28.20
2018-07-28T22:06:11.605Z,28.20
2018-07-28T22:08:40.427Z,28.20
2018-07-28T22:11:09.298Z,28.20
2018-07-28T22:13:38.145Z,28.10
2018-07-28T22:16:07.082Z,28.10
2018-07-28T22:18:36.842Z,28.10
2018-07-28T22:21:05.751Z,28.10
2018-07-28T22:23:34.605Z,28.10
2018-07-28T22:28:31.882Z,28.00
2018-07-28T22:31:00.783Z,28.00
2018-07-28T22:33:29.622Z,28.00
2018-07-28T22:35:58.491Z,28.00
2018-07-28T22:38:27.366Z,28.00
2018-07-28T22:40:56.251Z,28.00
2018-07-28T22:43:25.107Z,27.90
2018-07-28T22:45:54.093Z,27.90
2018-07-28T22:48:22.959Z,27.90
2018-07-28T22:50:51.799Z,27.90
2018-07-28T22:53:20.653Z,27.90
2018-07-28T22:55:49.470Z,27.90
2018-07-28T22:58:18.356Z,27.90
2018-07-28T23:00:47.182Z,27.90
2018-07-28T23:03:16.068Z,27.90
2018-07-28T23:05:44.906Z,27.90
2018-07-28T23:08:13.936Z,27.90
2018-07-28T23:10:42.783Z,27.80
2018-07-28T23:13:11.639Z,27.80
2018-07-28T23:15:40.455Z,27.80
2018-07-28T23:18:09.310Z,27.80
2018-07-28T23:20:38.114Z,27.80
2018-07-28T23:23:07.097Z,27.80
2018-07-28T23:25:35.910Z,27.70
2018-07-28T23:28:04.799Z,27.80
2018-07-28T23:30:33.715Z,27.70
2018-07-28T23:33:02.578Z,27.70
2018-07-28T23:35:31.431Z,27.70
2018-07-28T23:38:00.297Z,27.70
2018-07-28T23:40:29.175Z,27.70
2018-07-28T23:42:58.076Z,27.70
2018-07-28T23:45:27.005Z,27.70
2018-07-28T23:47:55.967Z,27.60
2018-07-28T23:50:24.808Z,27.60
2018-07-28T23:55:22.083Z,27.60
2018-07-28T23:57:50.958Z,27.60
